Pagrindinis puslapis
METAR-TAF:

METAR-TAF

Oro uostai :

Kairas, Egiptas

platuma: 30-08N, ilguma: 031-24E, Aukštis: 64 m

Dabartinis oras

Ataskaita buvo paskelbta 23 minutes, ne 07:00 UTC
Vėjas 16 kt iš Pietų
Temperatūra 14°C
Drėgmė 38%
Slėgis 1017 hPa
Matomumas: 6000 m
Mažai debesys ne aukštis 2500 ft

METAR: HECA 140700Z 17016KT 6000 FEW025 14/M00 Q1017 NOSIG

Laikas: 09:23 (07:23 UTC)

Prognozė

Ataskaita buvo paskelbta 2 valandos ir 23 minutes, ne 05:00 UTC
Prognozė galioja nuo 14 metu 06 UTC su 15 metu 12 UTC
Vėjas 13 kt iš Pietų
Matomumas: 6000 m
Su prošvaistėmis ne aukštis 2500 ft
Laikinai
nuo 14 metu 08 UTC su 14 metu 18 UTC
Vėjas 8 kt iš Pietvakarių su gūsio iki 18 kt
Išsisklaidę debesys ne aukštis 2500 ft
Su prošvaistėmis ne aukštis 3000 ft

TAF: HECA 140500Z 1406/1512 19013KT 6000 BKN025 TEMPO 1408/1418 23008G18KT 3000SA SCT025 BKN030

Orai ataskaitas ir orų prognozės (METAR, TAF).

turimą stotys yra geltonos ir raudonos taškus žemėlapyje.

Perkelti pele per norėdami pamatyti stoties vardą.

Tada spustelėkite, norėdami matyti oro stebėjimo ir prognozės.

Norėdami pakeisti žemėlapį: spustelėkite ant žalios mygtukų su juodo kryžiaus žemyn,; žalią mygtuką su brūkšneliu, jei norite nutolinti; arba žalių rodyklių gretimoms žemėlapius.


METAR-TAF: